Check out our new PWSWeather beta!
PWSweather.com
Personal Weather Stations
Station Observations
SD92115WX
El Cerrito Stoneybluff, San Diego, CA 92115

El Cerrito StoneybluffSan Diego, CA 92115

Lat: 32.754096, Lon: -117.066705

Elevation: 420

Station Type: Davis Vantage Vue

http://stoneybluff.com

High Low Average
Temperature 69.4°F20.8°C 48.2°F9.0°C 59.3°F15.2°C
Dew Point 55.8°F13.2°C 45.9°F7.7°C 52.1°F11.2°C
Winds 9.4 mph 15.1 kmh Calm Calm 2.0 mph S3.2 kmh S
Wind Gusts 14.8 mph23.8 kmh -- 5.0 mph8.0 kmh
Humidity 92% 59% 78%
Pressure 29.94 in1013.9 mb 29.87 in1011.5 mb -
Precipitation 0.00 in0.0 mm - -
Hour Temp Dew Point Humidity Winds Wind Gusts Pressure Precip Precip Rate Daily Precip Total
12:00 AM 52.3°F11.3°C 48.6°F9.2°C 87% Calm Calm -- 29.93 in1013.5 mb 0.00 in0.0 mm 0.00 in0.0 mm 0.00 in0.0 mm
12:05 AM 52.2°F11.2°C 48.4°F9.1°C 87% Calm Calm -- 29.93 in1013.5 mb 0.00 in0.0 mm 0.00 in0.0 mm 0.00 in0.0 mm
12:10 AM 52.0°F11.1°C 48.2°F9.0°C 87% Calm Calm -- 29.92 in1013.2 mb 0.00 in0.0 mm 0.00 in0.0 mm 0.00 in0.0 mm
12:15 AM 52.0°F11.1°C 48.6°F9.2°C 88% Calm Calm -- 29.93 in1013.5 mb 0.00 in0.0 mm 0.00 in0.0 mm 0.00 in0.0 mm
12:20 AM 52.0°F11.1°C 48.2°F9.0°C 87% Calm Calm -- 29.93 in1013.5 mb 0.00 in0.0 mm 0.00 in0.0 mm 0.00 in0.0 mm
12:25 AM 52.0°F11.1°C 48.6°F9.2°C 88% Calm Calm -- 29.92 in1013.2 mb 0.00 in0.0 mm 0.00 in0.0 mm 0.00 in0.0 mm
12:30 AM 52.0°F11.1°C 48.6°F9.2°C 88% Calm Calm -- 29.92 in1013.2 mb 0.00 in0.0 mm 0.00 in0.0 mm 0.00 in0.0 mm
12:35 AM 52.0°F11.1°C 48.6°F9.2°C 88% Calm Calm -- 29.92 in1013.2 mb 0.00 in0.0 mm 0.00 in0.0 mm 0.00 in0.0 mm
12:40 AM 51.8°F11.0°C 48.4°F9.1°C 88% Calm Calm -- 29.91 in1012.9 mb 0.00 in0.0 mm 0.00 in0.0 mm 0.00 in0.0 mm
12:45 AM 51.6°F10.9°C 48.2°F9.0°C 88% Calm Calm -- 29.91 in1012.9 mb 0.00 in0.0 mm 0.00 in0.0 mm 0.00 in0.0 mm
12:50 AM 51.6°F10.9°C 48.2°F9.0°C 88% Calm Calm -- 29.91 in1012.9 mb 0.00 in0.0 mm 0.00 in0.0 mm 0.00 in0.0 mm
12:55 AM 51.4°F10.8°C 48.0°F8.9°C 88% Calm Calm -- 29.91 in1012.9 mb 0.00 in0.0 mm 0.00 in0.0 mm 0.00 in0.0 mm
01:00 AM 51.3°F10.7°C 47.8°F8.8°C 88% Calm Calm -- 29.91 in1012.9 mb 0.00 in0.0 mm 0.00 in0.0 mm 0.00 in0.0 mm
01:05 AM 51.1°F10.6°C 47.7°F8.7°C 88% Calm Calm -- 29.91 in1012.9 mb 0.00 in0.0 mm 0.00 in0.0 mm 0.00 in0.0 mm
01:10 AM 50.9°F10.5°C 47.5°F8.6°C 88% Calm Calm -- 29.91 in1012.9 mb 0.00 in0.0 mm 0.00 in0.0 mm 0.00 in0.0 mm
01:15 AM 50.9°F10.5°C 47.8°F8.8°C 89% Calm Calm -- 29.91 in1012.9 mb 0.00 in0.0 mm 0.00 in0.0 mm 0.00 in0.0 mm
01:20 AM 50.9°F10.5°C 47.8°F8.8°C 89% Calm Calm -- 29.91 in1012.9 mb 0.00 in0.0 mm 0.00 in0.0 mm 0.00 in0.0 mm
01:25 AM 50.7°F10.4°C 47.7°F8.7°C 89% Calm Calm -- 29.91 in1012.9 mb 0.00 in0.0 mm 0.00 in0.0 mm 0.00 in0.0 mm
01:30 AM 50.7°F10.4°C 47.7°F8.7°C 89% Calm Calm -- 29.91 in1012.9 mb 0.00 in0.0 mm 0.00 in0.0 mm 0.00 in0.0 mm
01:35 AM 50.7°F10.4°C 47.7°F8.7°C 89% Calm Calm -- 29.91 in1012.9 mb 0.00 in0.0 mm 0.00 in0.0 mm 0.00 in0.0 mm
01:40 AM 50.5°F10.3°C 47.7°F8.7°C 90% Calm Calm -- 29.91 in1012.9 mb 0.00 in0.0 mm 0.00 in0.0 mm 0.00 in0.0 mm
01:45 AM 50.4°F10.2°C 47.3°F8.5°C 89% Calm Calm -- 29.90 in1012.5 mb 0.00 in0.0 mm 0.00 in0.0 mm 0.00 in0.0 mm
01:50 AM 50.4°F10.2°C 47.5°F8.6°C 90% Calm Calm -- 29.90 in1012.5 mb 0.00 in0.0 mm 0.00 in0.0 mm 0.00 in0.0 mm
01:55 AM 50.2°F10.1°C 47.3°F8.5°C 90% Calm Calm -- 29.90 in1012.5 mb 0.00 in0.0 mm 0.00 in0.0 mm 0.00 in0.0 mm
02:00 AM 49.8°F9.9°C 46.9°F8.3°C 90% Calm Calm -- 29.90 in1012.5 mb 0.00 in0.0 mm 0.00 in0.0 mm 0.00 in0.0 mm
02:05 AM 49.8°F9.9°C 46.9°F8.3°C 90% Calm Calm -- 29.90 in1012.5 mb 0.00 in0.0 mm 0.00 in0.0 mm 0.00 in0.0 mm
02:10 AM 49.6°F9.8°C 46.8°F8.2°C 90% Calm Calm -- 29.89 in1012.2 mb 0.00 in0.0 mm 0.00 in0.0 mm 0.00 in0.0 mm
02:15 AM 49.5°F9.7°C 46.6°F8.1°C 90% Calm Calm -- 29.89 in1012.2 mb 0.00 in0.0 mm 0.00 in0.0 mm 0.00 in0.0 mm
02:20 AM 49.3°F9.6°C 46.4°F8.0°C 90% Calm Calm -- 29.89 in1012.2 mb 0.00 in0.0 mm 0.00 in0.0 mm 0.00 in0.0 mm
02:25 AM 49.5°F9.7°C 46.9°F8.3°C 91% Calm Calm -- 29.89 in1012.2 mb 0.00 in0.0 mm 0.00 in0.0 mm 0.00 in0.0 mm
02:30 AM 49.3°F9.6°C 46.4°F8.0°C 90% Calm Calm -- 29.90 in1012.5 mb 0.00 in0.0 mm 0.00 in0.0 mm 0.00 in0.0 mm
02:35 AM 49.3°F9.6°C 46.8°F8.2°C 91% Calm Calm -- 29.89 in1012.2 mb 0.00 in0.0 mm 0.00 in0.0 mm 0.00 in0.0 mm
02:40 AM 49.3°F9.6°C 46.8°F8.2°C 91% Calm Calm -- 29.90 in1012.5 mb 0.00 in0.0 mm 0.00 in0.0 mm 0.00 in0.0 mm
02:45 AM 49.3°F9.6°C 46.8°F8.2°C 91% Calm Calm -- 29.90 in1012.5 mb 0.00 in0.0 mm 0.00 in0.0 mm 0.00 in0.0 mm
02:50 AM 49.3°F9.6°C 46.8°F8.2°C 91% Calm Calm -- 29.90 in1012.5 mb 0.00 in0.0 mm 0.00 in0.0 mm 0.00 in0.0 mm
02:55 AM 49.3°F9.6°C 46.8°F8.2°C 91% Calm Calm -- 29.89 in1012.2 mb 0.00 in0.0 mm 0.00 in0.0 mm 0.00 in0.0 mm
03:00 AM 49.3°F9.6°C 46.8°F8.2°C 91% Calm Calm -- 29.89 in1012.2 mb 0.00 in0.0 mm 0.00 in0.0 mm 0.00 in0.0 mm
03:05 AM 49.3°F9.6°C 46.8°F8.2°C 91% Calm Calm -- 29.89 in1012.2 mb 0.00 in0.0 mm 0.00 in0.0 mm 0.00 in0.0 mm
03:10 AM 49.3°F9.6°C 46.8°F8.2°C 91% Calm Calm -- 29.89 in1012.2 mb 0.00 in0.0 mm 0.00 in0.0 mm 0.00 in0.0 mm
03:15 AM 49.3°F9.6°C 46.8°F8.2°C 91% Calm Calm -- 29.89 in1012.2 mb 0.00 in0.0 mm 0.00 in0.0 mm 0.00 in0.0 mm
03:20 AM 49.3°F9.6°C 46.8°F8.2°C 91% Calm Calm -- 29.89 in1012.2 mb 0.00 in0.0 mm 0.00 in0.0 mm 0.00 in0.0 mm
03:25 AM 49.3°F9.6°C 46.8°F8.2°C 91% Calm Calm -- 29.88 in1011.9 mb 0.00 in0.0 mm 0.00 in0.0 mm 0.00 in0.0 mm
03:30 AM 49.1°F9.5°C 46.6°F8.1°C 91% Calm Calm -- 29.88 in1011.9 mb 0.00 in0.0 mm 0.00 in0.0 mm 0.00 in0.0 mm
03:35 AM 49.1°F9.5°C 46.6°F8.1°C 91% Calm Calm -- 29.88 in1011.9 mb 0.00 in0.0 mm 0.00 in0.0 mm 0.00 in0.0 mm
03:40 AM 48.9°F9.4°C 46.4°F8.0°C 91% Calm Calm -- 29.88 in1011.9 mb 0.00 in0.0 mm 0.00 in0.0 mm 0.00 in0.0 mm
03:45 AM 48.7°F9.3°C 46.2°F7.9°C 91% Calm Calm -- 29.88 in1011.9 mb 0.00 in0.0 mm 0.00 in0.0 mm 0.00 in0.0 mm
03:50 AM 48.6°F9.2°C 46.0°F7.8°C 91% Calm Calm -- 29.88 in1011.9 mb 0.00 in0.0 mm 0.00 in0.0 mm 0.00 in0.0 mm
03:55 AM 48.7°F9.3°C 46.6°F8.1°C 92% Calm Calm -- 29.88 in1011.9 mb 0.00 in0.0 mm 0.00 in0.0 mm 0.00 in0.0 mm
04:00 AM 48.6°F9.2°C 46.0°F7.8°C 91% Calm Calm -- 29.88 in1011.9 mb 0.00 in0.0 mm 0.00 in0.0 mm 0.00 in0.0 mm
04:05 AM 48.4°F9.1°C 45.9°F7.7°C 91% Calm Calm -- 29.87 in1011.5 mb 0.00 in0.0 mm 0.00 in0.0 mm 0.00 in0.0 mm
04:10 AM 48.4°F9.1°C 46.2°F7.9°C 92% Calm Calm 1.1 mph1.8 kmh 29.88 in1011.9 mb 0.00 in0.0 mm 0.00 in0.0 mm 0.00 in0.0 mm
04:15 AM 48.4°F9.1°C 46.2°F7.9°C 92% Calm Calm -- 29.87 in1011.5 mb 0.00 in0.0 mm 0.00 in0.0 mm 0.00 in0.0 mm
04:20 AM 48.4°F9.1°C 46.2°F7.9°C 92% Calm Calm -- 29.87 in1011.5 mb 0.00 in0.0 mm 0.00 in0.0 mm 0.00 in0.0 mm
04:25 AM 48.2°F9.0°C 46.0°F7.8°C 92% Calm Calm -- 29.87 in1011.5 mb 0.00 in0.0 mm 0.00 in0.0 mm 0.00 in0.0 mm
04:30 AM 48.4°F9.1°C 46.2°F7.9°C 92% Calm Calm -- 29.88 in1011.9 mb 0.00 in0.0 mm 0.00 in0.0 mm 0.00 in0.0 mm
04:35 AM 48.4°F9.1°C 46.2°F7.9°C 92% Calm Calm 1.1 mph1.8 kmh 29.88 in1011.9 mb 0.00 in0.0 mm 0.00 in0.0 mm 0.00 in0.0 mm
04:40 AM 48.6°F9.2°C 46.4°F8.0°C 92% Calm Calm -- 29.87 in1011.5 mb 0.00 in0.0 mm 0.00 in0.0 mm 0.00 in0.0 mm
04:45 AM 48.6°F9.2°C 46.4°F8.0°C 92% Calm Calm 1.1 mph1.8 kmh 29.87 in1011.5 mb 0.00 in0.0 mm 0.00 in0.0 mm 0.00 in0.0 mm
04:50 AM 48.6°F9.2°C 46.4°F8.0°C 92% Calm Calm 1.1 mph1.8 kmh 29.87 in1011.5 mb 0.00 in0.0 mm 0.00 in0.0 mm 0.00 in0.0 mm
04:55 AM 48.6°F9.2°C 46.4°F8.0°C 92% Calm Calm -- 29.87 in1011.5 mb 0.00 in0.0 mm 0.00 in0.0 mm 0.00 in0.0 mm
05:00 AM 48.7°F9.3°C 46.6°F8.1°C 92% Calm Calm 1.1 mph1.8 kmh 29.88 in1011.9 mb 0.00 in0.0 mm 0.00 in0.0 mm 0.00 in0.0 mm
05:05 AM 48.7°F9.3°C 46.6°F8.1°C 92% Calm Calm -- 29.88 in1011.9 mb 0.00 in0.0 mm 0.00 in0.0 mm 0.00 in0.0 mm
05:10 AM 48.7°F9.3°C 46.6°F8.1°C 92% Calm Calm -- 29.88 in1011.9 mb 0.00 in0.0 mm 0.00 in0.0 mm 0.00 in0.0 mm
05:15 AM 48.9°F9.4°C 46.8°F8.2°C 92% Calm Calm -- 29.88 in1011.9 mb 0.00 in0.0 mm 0.00 in0.0 mm 0.00 in0.0 mm
05:20 AM 48.9°F9.4°C 46.8°F8.2°C 92% Calm Calm -- 29.88 in1011.9 mb 0.00 in0.0 mm 0.00 in0.0 mm 0.00 in0.0 mm
05:25 AM 48.9°F9.4°C 46.8°F8.2°C 92% Calm Calm -- 29.89 in1012.2 mb 0.00 in0.0 mm 0.00 in0.0 mm 0.00 in0.0 mm
05:30 AM 48.9°F9.4°C 46.8°F8.2°C 92% Calm Calm -- 29.89 in1012.2 mb 0.00 in0.0 mm 0.00 in0.0 mm 0.00 in0.0 mm
05:35 AM 49.3°F9.6°C 47.1°F8.4°C 92% Calm Calm -- 29.89 in1012.2 mb 0.00 in0.0 mm 0.00 in0.0 mm 0.00 in0.0 mm
05:40 AM 49.5°F9.7°C 47.3°F8.5°C 92% Calm Calm -- 29.90 in1012.5 mb 0.00 in0.0 mm 0.00 in0.0 mm 0.00 in0.0 mm
05:45 AM 49.8°F9.9°C 47.7°F8.7°C 92% Calm Calm -- 29.90 in1012.5 mb 0.00 in0.0 mm 0.00 in0.0 mm 0.00 in0.0 mm
05:50 AM 50.2°F10.1°C 48.0°F8.9°C 92% Calm Calm -- 29.90 in1012.5 mb 0.00 in0.0 mm 0.00 in0.0 mm 0.00 in0.0 mm
05:55 AM 50.5°F10.3°C 48.4°F9.1°C 92% Calm Calm -- 29.90 in1012.5 mb 0.00 in0.0 mm 0.00 in0.0 mm 0.00 in0.0 mm
06:00 AM 51.1°F10.6°C 48.9°F9.4°C 92% Calm Calm -- 29.91 in1012.9 mb 0.00 in0.0 mm 0.00 in0.0 mm 0.00 in0.0 mm
06:05 AM 51.4°F10.8°C 48.9°F9.4°C 91% Calm Calm -- 29.91 in1012.9 mb 0.00 in0.0 mm 0.00 in0.0 mm 0.00 in0.0 mm
06:10 AM 52.0°F11.1°C 49.5°F9.7°C 91% Calm Calm -- 29.91 in1012.9 mb 0.00 in0.0 mm 0.00 in0.0 mm 0.00 in0.0 mm
06:15 AM 52.3°F11.3°C 49.5°F9.7°C 90% Calm Calm -- 29.90 in1012.5 mb 0.00 in0.0 mm 0.00 in0.0 mm 0.00 in0.0 mm
06:20 AM 52.5°F11.4°C 49.6°F9.8°C 90% Calm Calm -- 29.90 in1012.5 mb 0.00 in0.0 mm 0.00 in0.0 mm 0.00 in0.0 mm
06:25 AM 53.4°F11.9°C 50.5°F10.3°C 90% Calm Calm 1.1 mph1.8 kmh 29.90 in1012.5 mb 0.00 in0.0 mm 0.00 in0.0 mm 0.00 in0.0 mm
06:30 AM 54.5°F12.5°C 51.3°F10.7°C 89% Calm Calm 1.1 mph1.8 kmh 29.90 in1012.5 mb 0.00 in0.0 mm 0.00 in0.0 mm 0.00 in0.0 mm
06:35 AM 55.0°F12.8°C 51.3°F10.7°C 87% Calm Calm -- 29.90 in1012.5 mb 0.00 in0.0 mm 0.00 in0.0 mm 0.00 in0.0 mm
06:40 AM 55.8°F13.2°C 51.6°F10.9°C 86% Calm Calm 1.1 mph1.8 kmh 29.91 in1012.9 mb 0.00 in0.0 mm 0.00 in0.0 mm 0.00 in0.0 mm
06:45 AM 55.9°F13.3°C 51.4°F10.8°C 85% Calm Calm -- 29.91 in1012.9 mb 0.00 in0.0 mm 0.00 in0.0 mm 0.00 in0.0 mm
06:50 AM 56.3°F13.5°C 51.3°F10.7°C 83% Calm Calm 2.0 mph3.2 kmh 29.90 in1012.5 mb 0.00 in0.0 mm 0.00 in0.0 mm 0.00 in0.0 mm
06:55 AM 56.5°F13.6°C 51.4°F10.8°C 83% Calm Calm 1.1 mph1.8 kmh 29.91 in1012.9 mb 0.00 in0.0 mm 0.00 in0.0 mm 0.00 in0.0 mm
07:00 AM 57.0°F13.9°C 51.6°F10.9°C 82% Calm Calm -- 29.91 in1012.9 mb 0.00 in0.0 mm 0.00 in0.0 mm 0.00 in0.0 mm
07:05 AM 57.2°F14.0°C 51.4°F10.8°C 81% 0.2 mph WSW0.3 kmh WSW 1.1 mph1.8 kmh 29.91 in1012.9 mb 0.00 in0.0 mm 0.00 in0.0 mm 0.00 in0.0 mm
07:10 AM 57.4°F14.1°C 51.6°F10.9°C 81% Calm Calm -- 29.91 in1012.9 mb 0.00 in0.0 mm 0.00 in0.0 mm 0.00 in0.0 mm
07:15 AM 57.6°F14.2°C 51.4°F10.8°C 80% 0.4 mph SW0.6 kmh SW 2.0 mph3.2 kmh 29.91 in1012.9 mb 0.00 in0.0 mm 0.00 in0.0 mm 0.00 in0.0 mm
07:20 AM 57.6°F14.2°C 51.4°F10.8°C 80% Calm Calm 2.0 mph3.2 kmh 29.91 in1012.9 mb 0.00 in0.0 mm 0.00 in0.0 mm 0.00 in0.0 mm
07:25 AM 57.9°F14.4°C 52.2°F11.2°C 81% Calm Calm -- 29.91 in1012.9 mb 0.00 in0.0 mm 0.00 in0.0 mm 0.00 in0.0 mm
07:30 AM 58.3°F14.6°C 51.8°F11.0°C 79% 0.2 mph SSW0.3 kmh SSW 1.1 mph1.8 kmh 29.91 in1012.9 mb 0.00 in0.0 mm 0.00 in0.0 mm 0.00 in0.0 mm
07:35 AM 58.8°F14.9°C 52.3°F11.3°C 79% 0.2 mph ENE0.3 kmh ENE 1.1 mph1.8 kmh 29.92 in1013.2 mb 0.00 in0.0 mm 0.00 in0.0 mm 0.00 in0.0 mm
07:40 AM 59.4°F15.2°C 52.2°F11.2°C 77% 1.1 mph SW1.8 kmh SW 3.1 mph5.0 kmh 29.92 in1013.2 mb 0.00 in0.0 mm 0.00 in0.0 mm 0.00 in0.0 mm
07:45 AM 59.4°F15.2°C 52.2°F11.2°C 77% Calm Calm 2.0 mph3.2 kmh 29.91 in1012.9 mb 0.00 in0.0 mm 0.00 in0.0 mm 0.00 in0.0 mm
07:50 AM 60.1°F15.6°C 52.5°F11.4°C 76% Calm Calm -- 29.92 in1013.2 mb 0.00 in0.0 mm 0.00 in0.0 mm 0.00 in0.0 mm
07:55 AM 60.1°F15.6°C 52.2°F11.2°C 75% Calm Calm 5.4 mph8.7 kmh 29.92 in1013.2 mb 0.00 in0.0 mm 0.00 in0.0 mm 0.00 in0.0 mm
08:00 AM 60.1°F15.6°C 52.2°F11.2°C 75% 0.7 mph SE1.1 kmh SE 3.1 mph5.0 kmh 29.92 in1013.2 mb 0.00 in0.0 mm 0.00 in0.0 mm 0.00 in0.0 mm
08:05 AM 61.0°F16.1°C 53.1°F11.7°C 75% 0.9 mph S1.4 kmh S 3.1 mph5.0 kmh 29.92 in1013.2 mb 0.00 in0.0 mm 0.00 in0.0 mm 0.00 in0.0 mm
08:10 AM 61.5°F16.4°C 52.3°F11.3°C 72% 1.6 mph SSW2.6 kmh SSW 3.1 mph5.0 kmh 29.92 in1013.2 mb 0.00 in0.0 mm 0.00 in0.0 mm 0.00 in0.0 mm
08:15 AM 61.5°F16.4°C 52.0°F11.1°C 71% 0.2 mph W0.3 kmh W 4.3 mph6.9 kmh 29.91 in1012.9 mb 0.00 in0.0 mm 0.00 in0.0 mm 0.00 in0.0 mm
08:20 AM 61.5°F16.4°C 52.0°F11.1°C 71% 1.3 mph SW2.1 kmh SW 5.4 mph8.7 kmh 29.92 in1013.2 mb 0.00 in0.0 mm 0.00 in0.0 mm 0.00 in0.0 mm
08:25 AM 61.7°F16.5°C 51.8°F11.0°C 70% 1.6 mph SW2.6 kmh SW 6.3 mph10.1 kmh 29.92 in1013.2 mb 0.00 in0.0 mm 0.00 in0.0 mm 0.00 in0.0 mm
08:30 AM 62.1°F16.7°C 51.8°F11.0°C 69% 2.5 mph SSW4.0 kmh SSW 6.3 mph10.1 kmh 29.91 in1012.9 mb 0.00 in0.0 mm 0.00 in0.0 mm 0.00 in0.0 mm
08:35 AM 62.4°F16.9°C 51.8°F11.0°C 68% 1.6 mph SE2.6 kmh SE 6.3 mph10.1 kmh 29.91 in1012.9 mb 0.00 in0.0 mm 0.00 in0.0 mm 0.00 in0.0 mm
08:40 AM 63.0°F17.2°C 51.8°F11.0°C 67% 3.6 mph SW5.8 kmh SW 8.5 mph13.7 kmh 29.92 in1013.2 mb 0.00 in0.0 mm 0.00 in0.0 mm 0.00 in0.0 mm
08:45 AM 62.4°F16.9°C 51.3°F10.7°C 67% 1.1 mph SW1.8 kmh SW 6.3 mph10.1 kmh 29.92 in1013.2 mb 0.00 in0.0 mm 0.00 in0.0 mm 0.00 in0.0 mm
08:50 AM 62.4°F16.9°C 50.9°F10.5°C 66% 2.0 mph SW3.2 kmh SW 8.5 mph13.7 kmh 29.92 in1013.2 mb 0.00 in0.0 mm 0.00 in0.0 mm 0.00 in0.0 mm
08:55 AM 62.6°F17.0°C 51.1°F10.6°C 66% 0.9 mph SW1.4 kmh SW 6.3 mph10.1 kmh 29.92 in1013.2 mb 0.00 in0.0 mm 0.00 in0.0 mm 0.00 in0.0 mm
09:00 AM 63.1°F17.3°C 51.6°F10.9°C 66% 2.0 mph SSW3.2 kmh SSW 6.3 mph10.1 kmh 29.93 in1013.5 mb 0.00 in0.0 mm 0.00 in0.0 mm 0.00 in0.0 mm
09:05 AM 63.7°F17.6°C 52.2°F11.2°C 66% 4.5 mph SW7.2 kmh SW 6.3 mph10.1 kmh 29.93 in1013.5 mb 0.00 in0.0 mm 0.00 in0.0 mm 0.00 in0.0 mm
09:10 AM 63.5°F17.5°C 52.3°F11.3°C 67% 2.5 mph SW4.0 kmh SW 7.4 mph11.9 kmh 29.93 in1013.5 mb 0.00 in0.0 mm 0.00 in0.0 mm 0.00 in0.0 mm
09:15 AM 63.9°F17.7°C 52.3°F11.3°C 66% 2.2 mph SW3.5 kmh SW 6.3 mph10.1 kmh 29.93 in1013.5 mb 0.00 in0.0 mm 0.00 in0.0 mm 0.00 in0.0 mm
09:20 AM 64.2°F17.9°C 53.1°F11.7°C 67% 3.4 mph SW5.5 kmh SW 8.5 mph13.7 kmh 29.93 in1013.5 mb 0.00 in0.0 mm 0.00 in0.0 mm 0.00 in0.0 mm
09:25 AM 64.2°F17.9°C 52.7°F11.5°C 66% 5.4 mph S8.7 kmh S 9.6 mph15.4 kmh 29.92 in1013.2 mb 0.00 in0.0 mm 0.00 in0.0 mm 0.00 in0.0 mm
09:30 AM 64.2°F17.9°C 52.7°F11.5°C 66% 4.0 mph SSW6.4 kmh SSW 8.5 mph13.7 kmh 29.93 in1013.5 mb 0.00 in0.0 mm 0.00 in0.0 mm 0.00 in0.0 mm
09:35 AM 64.4°F18.0°C 52.3°F11.3°C 65% 5.6 mph SW9.0 kmh SW 11.6 mph18.7 kmh 29.93 in1013.5 mb 0.00 in0.0 mm 0.00 in0.0 mm 0.00 in0.0 mm
09:40 AM 64.4°F18.0°C 53.2°F11.8°C 67% 6.7 mph SW10.8 kmh SW 11.6 mph18.7 kmh 29.93 in1013.5 mb 0.00 in0.0 mm 0.00 in0.0 mm 0.00 in0.0 mm
09:45 AM 64.6°F18.1°C 53.8°F12.1°C 68% 4.9 mph SW7.9 kmh SW 11.6 mph18.7 kmh 29.93 in1013.5 mb 0.00 in0.0 mm 0.00 in0.0 mm 0.00 in0.0 mm
09:50 AM 64.2°F17.9°C 53.4°F11.9°C 68% 6.3 mph SW10.1 kmh SW 11.6 mph18.7 kmh 29.93 in1013.5 mb 0.00 in0.0 mm 0.00 in0.0 mm 0.00 in0.0 mm
09:55 AM 64.2°F17.9°C 53.4°F11.9°C 68% 4.9 mph SW7.9 kmh SW 10.5 mph16.9 kmh 29.94 in1013.9 mb 0.00 in0.0 mm 0.00 in0.0 mm 0.00 in0.0 mm
10:00 AM 63.9°F17.7°C 53.4°F11.9°C 69% 2.7 mph SW4.3 kmh SW 9.6 mph15.4 kmh 29.93 in1013.5 mb 0.00 in0.0 mm 0.00 in0.0 mm 0.00 in0.0 mm
10:05 AM 64.0°F17.8°C 53.6°F12.0°C 69% 3.8 mph SW6.1 kmh SW 8.5 mph13.7 kmh 29.93 in1013.5 mb 0.00 in0.0 mm 0.00 in0.0 mm 0.00 in0.0 mm
10:10 AM 64.2°F17.9°C 53.4°F11.9°C 68% 6.3 mph S10.1 kmh S 10.5 mph16.9 kmh 29.93 in1013.5 mb 0.00 in0.0 mm 0.00 in0.0 mm 0.00 in0.0 mm
10:15 AM 64.4°F18.0°C 54.0°F12.2°C 69% 4.9 mph SW7.9 kmh SW 8.5 mph13.7 kmh 29.93 in1013.5 mb 0.00 in0.0 mm 0.00 in0.0 mm 0.00 in0.0 mm
10:20 AM 64.6°F18.1°C 53.8°F12.1°C 68% 0.7 mph SW1.1 kmh SW 7.4 mph11.9 kmh 29.93 in1013.5 mb 0.00 in0.0 mm 0.00 in0.0 mm 0.00 in0.0 mm
10:25 AM 65.1°F18.4°C 54.3°F12.4°C 68% 2.9 mph SW4.7 kmh SW 6.3 mph10.1 kmh 29.93 in1013.5 mb 0.00 in0.0 mm 0.00 in0.0 mm 0.00 in0.0 mm
10:30 AM 65.1°F18.4°C 54.0°F12.2°C 67% 2.2 mph NW3.5 kmh NW 9.6 mph15.4 kmh 29.93 in1013.5 mb 0.00 in0.0 mm 0.00 in0.0 mm 0.00 in0.0 mm
10:35 AM 64.9°F18.3°C 54.5°F12.5°C 69% 3.6 mph SE5.8 kmh SE 8.5 mph13.7 kmh 29.93 in1013.5 mb 0.00 in0.0 mm 0.00 in0.0 mm 0.00 in0.0 mm
10:40 AM 65.1°F18.4°C 54.7°F12.6°C 69% 3.6 mph WSW5.8 kmh WSW 7.4 mph11.9 kmh 29.94 in1013.9 mb 0.00 in0.0 mm 0.00 in0.0 mm 0.00 in0.0 mm
10:45 AM 65.5°F18.6°C 55.0°F12.8°C 69% 3.1 mph S5.0 kmh S 7.4 mph11.9 kmh 29.93 in1013.5 mb 0.00 in0.0 mm 0.00 in0.0 mm 0.00 in0.0 mm
10:50 AM 66.6°F19.2°C 54.5°F12.5°C 65% 4.3 mph WSW6.9 kmh WSW 9.6 mph15.4 kmh 29.93 in1013.5 mb 0.00 in0.0 mm 0.00 in0.0 mm 0.00 in0.0 mm
10:55 AM 66.4°F19.1°C 54.7°F12.6°C 66% 2.9 mph SSE4.7 kmh SSE 8.5 mph13.7 kmh 29.93 in1013.5 mb 0.00 in0.0 mm 0.00 in0.0 mm 0.00 in0.0 mm
11:00 AM 67.3°F19.6°C 55.0°F12.8°C 65% 5.1 mph SSW8.2 kmh SSW 10.5 mph16.9 kmh 29.93 in1013.5 mb 0.00 in0.0 mm 0.00 in0.0 mm 0.00 in0.0 mm
11:05 AM 67.6°F19.8°C 55.4°F13.0°C 65% 2.9 mph SSW4.7 kmh SSW 6.3 mph10.1 kmh 29.93 in1013.5 mb 0.00 in0.0 mm 0.00 in0.0 mm 0.00 in0.0 mm
11:10 AM 68.2°F20.1°C 54.7°F12.6°C 62% 3.1 mph WNW5.0 kmh WNW 6.3 mph10.1 kmh 29.92 in1013.2 mb 0.00 in0.0 mm 0.00 in0.0 mm 0.00 in0.0 mm
11:15 AM 68.2°F20.1°C 55.0°F12.8°C 63% 4.3 mph SSE6.9 kmh SSE 7.4 mph11.9 kmh 29.92 in1013.2 mb 0.00 in0.0 mm 0.00 in0.0 mm 0.00 in0.0 mm
11:20 AM 68.4°F20.2°C 54.9°F12.7°C 62% 4.0 mph SW6.4 kmh SW 7.4 mph11.9 kmh 29.92 in1013.2 mb 0.00 in0.0 mm 0.00 in0.0 mm 0.00 in0.0 mm
11:25 AM 68.7°F20.4°C 55.2°F12.9°C 62% 1.6 mph W2.6 kmh W 6.3 mph10.1 kmh 29.92 in1013.2 mb 0.00 in0.0 mm 0.00 in0.0 mm 0.00 in0.0 mm
11:30 AM 68.7°F20.4°C 55.2°F12.9°C 62% 4.0 mph W6.4 kmh W 9.6 mph15.4 kmh 29.92 in1013.2 mb 0.00 in0.0 mm 0.00 in0.0 mm 0.00 in0.0 mm
11:35 AM 68.7°F20.4°C 54.7°F12.6°C 61% 4.3 mph W6.9 kmh W 9.6 mph15.4 kmh 29.92 in1013.2 mb 0.00 in0.0 mm 0.00 in0.0 mm 0.00 in0.0 mm
11:40 AM 68.4°F20.2°C 54.3°F12.4°C 61% 2.7 mph SW4.3 kmh SW 7.4 mph11.9 kmh 29.91 in1012.9 mb 0.00 in0.0 mm 0.00 in0.0 mm 0.00 in0.0 mm
11:45 AM 69.1°F20.6°C 55.0°F12.8°C 61% 6.0 mph SW9.7 kmh SW 9.6 mph15.4 kmh 29.92 in1013.2 mb 0.00 in0.0 mm 0.00 in0.0 mm 0.00 in0.0 mm
11:50 AM 68.7°F20.4°C 55.2°F12.9°C 62% 2.2 mph WSW3.5 kmh WSW 9.6 mph15.4 kmh 29.92 in1013.2 mb 0.00 in0.0 mm 0.00 in0.0 mm 0.00 in0.0 mm
11:55 AM 68.9°F20.5°C 54.9°F12.7°C 61% 4.3 mph SSW6.9 kmh SSW 9.6 mph15.4 kmh 29.92 in1013.2 mb 0.00 in0.0 mm 0.00 in0.0 mm 0.00 in0.0 mm
12:00 PM 68.5°F20.3°C 55.4°F13.0°C 63% 5.1 mph S8.2 kmh S 11.6 mph18.7 kmh 29.92 in1013.2 mb 0.00 in0.0 mm 0.00 in0.0 mm 0.00 in0.0 mm
12:05 PM 69.4°F20.8°C 55.4°F13.0°C 61% 6.9 mph SW11.1 kmh SW 10.5 mph16.9 kmh 29.92 in1013.2 mb 0.00 in0.0 mm 0.00 in0.0 mm 0.00 in0.0 mm
12:10 PM 68.9°F20.5°C 55.4°F13.0°C 62% 8.9 mph WSW14.3 kmh WSW 14.8 mph23.8 kmh 29.92 in1013.2 mb 0.00 in0.0 mm 0.00 in0.0 mm 0.00 in0.0 mm
12:15 PM 68.9°F20.5°C 55.8°F13.2°C 63% 8.9 mph S14.3 kmh S 14.8 mph23.8 kmh 29.93 in1013.5 mb 0.00 in0.0 mm 0.00 in0.0 mm 0.00 in0.0 mm
12:20 PM 68.7°F20.4°C 55.6°F13.1°C 63% 6.7 mph SW10.8 kmh SW 10.5 mph16.9 kmh 29.92 in1013.2 mb 0.00 in0.0 mm 0.00 in0.0 mm 0.00 in0.0 mm
12:25 PM 68.9°F20.5°C 55.4°F13.0°C 62% 4.5 mph WSW7.2 kmh WSW 11.6 mph18.7 kmh 29.92 in1013.2 mb 0.00 in0.0 mm 0.00 in0.0 mm 0.00 in0.0 mm
12:30 PM 68.5°F20.3°C 55.4°F13.0°C 63% 8.1 mph S13.0 kmh S 14.8 mph23.8 kmh 29.92 in1013.2 mb 0.00 in0.0 mm 0.00 in0.0 mm 0.00 in0.0 mm
12:35 PM 68.5°F20.3°C 55.0°F12.8°C 62% 9.4 mph SW15.1 kmh SW 14.8 mph23.8 kmh 29.92 in1013.2 mb 0.00 in0.0 mm 0.00 in0.0 mm 0.00 in0.0 mm
12:40 PM 67.8°F19.9°C 55.6°F13.1°C 65% 6.9 mph SSW11.1 kmh SSW 11.6 mph18.7 kmh 29.92 in1013.2 mb 0.00 in0.0 mm 0.00 in0.0 mm 0.00 in0.0 mm
12:45 PM 67.6°F19.8°C 55.4°F13.0°C 65% 7.8 mph SSW12.6 kmh SSW 14.8 mph23.8 kmh 29.91 in1012.9 mb 0.00 in0.0 mm 0.00 in0.0 mm 0.00 in0.0 mm
12:50 PM 67.3°F19.6°C 54.7°F12.6°C 64% 6.0 mph SW9.7 kmh SW 11.6 mph18.7 kmh 29.92 in1013.2 mb 0.00 in0.0 mm 0.00 in0.0 mm 0.00 in0.0 mm
12:55 PM 67.3°F19.6°C 55.0°F12.8°C 65% 7.8 mph SSW12.6 kmh SSW 11.6 mph18.7 kmh 29.92 in1013.2 mb 0.00 in0.0 mm 0.00 in0.0 mm 0.00 in0.0 mm
01:00 PM 67.8°F19.9°C 55.2°F12.9°C 64% 8.9 mph SW14.3 kmh SW 13.9 mph22.4 kmh 29.92 in1013.2 mb 0.00 in0.0 mm 0.00 in0.0 mm 0.00 in0.0 mm
01:05 PM 67.1°F19.5°C 54.5°F12.5°C 64% 6.9 mph SW11.1 kmh SW 12.8 mph20.6 kmh 29.92 in1013.2 mb 0.00 in0.0 mm 0.00 in0.0 mm 0.00 in0.0 mm
01:10 PM 67.1°F19.5°C 54.5°F12.5°C 64% 6.9 mph SW11.1 kmh SW 11.6 mph18.7 kmh 29.91 in1012.9 mb 0.00 in0.0 mm 0.00 in0.0 mm 0.00 in0.0 mm
01:15 PM 66.9°F19.4°C 54.3°F12.4°C 64% 6.5 mph SW10.5 kmh SW 10.5 mph16.9 kmh 29.92 in1013.2 mb 0.00 in0.0 mm 0.00 in0.0 mm 0.00 in0.0 mm
01:20 PM 67.3°F19.6°C 54.7°F12.6°C 64% 6.5 mph SSE10.5 kmh SSE 11.6 mph18.7 kmh 29.91 in1012.9 mb 0.00 in0.0 mm 0.00 in0.0 mm 0.00 in0.0 mm
01:25 PM 67.8°F19.9°C 54.3°F12.4°C 62% 7.2 mph SSW11.6 kmh SSW 10.5 mph16.9 kmh 29.91 in1012.9 mb 0.00 in0.0 mm 0.00 in0.0 mm 0.00 in0.0 mm
01:30 PM 67.3°F19.6°C 53.8°F12.1°C 62% 6.5 mph SW10.5 kmh SW 14.8 mph23.8 kmh 29.91 in1012.9 mb 0.00 in0.0 mm 0.00 in0.0 mm 0.00 in0.0 mm
01:35 PM 67.6°F19.8°C 53.8°F12.1°C 61% 5.1 mph SW8.2 kmh SW 11.6 mph18.7 kmh 29.91 in1012.9 mb 0.00 in0.0 mm 0.00 in0.0 mm 0.00 in0.0 mm
01:40 PM 67.8°F19.9°C 54.3°F12.4°C 62% 6.9 mph SW11.1 kmh SW 11.6 mph18.7 kmh 29.92 in1013.2 mb 0.00 in0.0 mm 0.00 in0.0 mm 0.00 in0.0 mm
01:45 PM 68.5°F20.3°C 53.6°F12.0°C 59% 7.2 mph S11.6 kmh S 12.8 mph20.6 kmh 29.91 in1012.9 mb 0.00 in0.0 mm 0.00 in0.0 mm 0.00 in0.0 mm
01:50 PM 68.4°F20.2°C 54.0°F12.2°C 60% 6.7 mph S10.8 kmh S 11.6 mph18.7 kmh 29.91 in1012.9 mb 0.00 in0.0 mm 0.00 in0.0 mm 0.00 in0.0 mm
01:55 PM 67.8°F19.9°C 54.0°F12.2°C 61% 6.7 mph SW10.8 kmh SW 11.6 mph18.7 kmh 29.91 in1012.9 mb 0.00 in0.0 mm 0.00 in0.0 mm 0.00 in0.0 mm
02:00 PM 67.8°F19.9°C 54.3°F12.4°C 62% 6.0 mph SW9.7 kmh SW 10.5 mph16.9 kmh 29.91 in1012.9 mb 0.00 in0.0 mm 0.00 in0.0 mm 0.00 in0.0 mm
02:05 PM 67.8°F19.9°C 53.4°F11.9°C 60% 6.7 mph SSW10.8 kmh SSW 11.6 mph18.7 kmh 29.91 in1012.9 mb 0.00 in0.0 mm 0.00 in0.0 mm 0.00 in0.0 mm
02:10 PM 68.0°F20.0°C 54.0°F12.2°C 61% 5.1 mph SW8.2 kmh SW 11.6 mph18.7 kmh 29.91 in1012.9 mb 0.00 in0.0 mm 0.00 in0.0 mm 0.00 in0.0 mm
02:15 PM 67.8°F19.9°C 53.4°F11.9°C 60% 6.9 mph SSW11.1 kmh SSW 12.8 mph20.6 kmh 29.90 in1012.5 mb 0.00 in0.0 mm 0.00 in0.0 mm 0.00 in0.0 mm
02:20 PM 68.2°F20.1°C 53.8°F12.1°C 60% 5.8 mph SW9.3 kmh SW 11.6 mph18.7 kmh 29.90 in1012.5 mb 0.00 in0.0 mm 0.00 in0.0 mm 0.00 in0.0 mm
02:25 PM 68.5°F20.3°C 54.5°F12.5°C 61% 5.6 mph SW9.0 kmh SW 10.5 mph16.9 kmh 29.89 in1012.2 mb 0.00 in0.0 mm 0.00 in0.0 mm 0.00 in0.0 mm
02:30 PM 68.7°F20.4°C 54.7°F12.6°C 61% 7.2 mph S11.6 kmh S 10.5 mph16.9 kmh 29.89 in1012.2 mb 0.00 in0.0 mm 0.00 in0.0 mm 0.00 in0.0 mm
02:35 PM 68.7°F20.4°C 54.7°F12.6°C 61% 8.3 mph SW13.4 kmh SW 11.6 mph18.7 kmh 29.89 in1012.2 mb 0.00 in0.0 mm 0.00 in0.0 mm 0.00 in0.0 mm
02:40 PM 68.4°F20.2°C 54.9°F12.7°C 62% 7.6 mph WSW12.2 kmh WSW 12.8 mph20.6 kmh 29.88 in1011.9 mb 0.00 in0.0 mm 0.00 in0.0 mm 0.00 in0.0 mm
02:45 PM 67.6°F19.8°C 54.7°F12.6°C 63% 5.6 mph SW9.0 kmh SW 12.8 mph20.6 kmh 29.88 in1011.9 mb 0.00 in0.0 mm 0.00 in0.0 mm 0.00 in0.0 mm
02:50 PM 68.2°F20.1°C 55.6°F13.1°C 64% 5.4 mph WSW8.7 kmh WSW 9.6 mph15.4 kmh 29.88 in1011.9 mb 0.00 in0.0 mm 0.00 in0.0 mm 0.00 in0.0 mm
02:55 PM 68.4°F20.2°C 55.2°F12.9°C 63% 4.9 mph SW7.9 kmh SW 10.5 mph16.9 kmh 29.88 in1011.9 mb 0.00 in0.0 mm 0.00 in0.0 mm 0.00 in0.0 mm
03:00 PM 68.2°F20.1°C 55.6°F13.1°C 64% 6.0 mph WSW9.7 kmh WSW 11.6 mph18.7 kmh 29.88 in1011.9 mb 0.00 in0.0 mm 0.00 in0.0 mm 0.00 in0.0 mm
03:05 PM 67.8°F19.9°C 55.6°F13.1°C 65% 4.7 mph S7.6 kmh S 9.6 mph15.4 kmh 29.88 in1011.9 mb 0.00 in0.0 mm 0.00 in0.0 mm 0.00 in0.0 mm
03:10 PM 67.5°F19.7°C 55.2°F12.9°C 65% 4.9 mph SW7.9 kmh SW 9.6 mph15.4 kmh 29.88 in1011.9 mb 0.00 in0.0 mm 0.00 in0.0 mm 0.00 in0.0 mm
03:15 PM 67.3°F19.6°C 55.0°F12.8°C 65% 6.3 mph SW10.1 kmh SW 12.8 mph20.6 kmh 29.88 in1011.9 mb 0.00 in0.0 mm 0.00 in0.0 mm 0.00 in0.0 mm
03:20 PM 66.7°F19.3°C 55.4°F13.0°C 67% 8.3 mph WSW13.4 kmh WSW 12.8 mph20.6 kmh 29.88 in1011.9 mb 0.00 in0.0 mm 0.00 in0.0 mm 0.00 in0.0 mm
03:25 PM 66.9°F19.4°C 54.9°F12.7°C 65% 6.7 mph WSW10.8 kmh WSW 10.5 mph16.9 kmh 29.88 in1011.9 mb 0.00 in0.0 mm 0.00 in0.0 mm 0.00 in0.0 mm
03:30 PM 66.6°F19.2°C 54.9°F12.7°C 66% 5.1 mph S8.2 kmh S 9.6 mph15.4 kmh 29.87 in1011.5 mb 0.00 in0.0 mm 0.00 in0.0 mm 0.00 in0.0 mm
03:35 PM 66.4°F19.1°C 55.0°F12.8°C 67% 6.5 mph SW10.5 kmh SW 12.8 mph20.6 kmh 29.88 in1011.9 mb 0.00 in0.0 mm 0.00 in0.0 mm 0.00 in0.0 mm
03:40 PM 65.8°F18.8°C 54.5°F12.5°C 67% 5.8 mph SSW9.3 kmh SSW 11.6 mph18.7 kmh 29.88 in1011.9 mb 0.00 in0.0 mm 0.00 in0.0 mm 0.00 in0.0 mm
03:45 PM 65.8°F18.8°C 55.0°F12.8°C 68% 4.5 mph SW7.2 kmh SW 10.5 mph16.9 kmh 29.88 in1011.9 mb 0.00 in0.0 mm 0.00 in0.0 mm 0.00 in0.0 mm
03:50 PM 65.7°F18.7°C 54.3°F12.4°C 67% 6.7 mph SSE10.8 kmh SSE 11.6 mph18.7 kmh 29.88 in1011.9 mb 0.00 in0.0 mm 0.00 in0.0 mm 0.00 in0.0 mm
03:55 PM 65.8°F18.8°C 54.5°F12.5°C 67% 6.7 mph SSW10.8 kmh SSW 11.6 mph18.7 kmh 29.88 in1011.9 mb 0.00 in0.0 mm 0.00 in0.0 mm 0.00 in0.0 mm
04:00 PM 65.7°F18.7°C 54.3°F12.4°C 67% 6.5 mph S10.5 kmh S 13.9 mph22.4 kmh 29.88 in1011.9 mb 0.00 in0.0 mm 0.00 in0.0 mm 0.00 in0.0 mm
04:05 PM 65.3°F18.5°C 54.5°F12.5°C 68% 5.6 mph WSW9.0 kmh WSW 13.9 mph22.4 kmh 29.88 in1011.9 mb 0.00 in0.0 mm 0.00 in0.0 mm 0.00 in0.0 mm
04:10 PM 64.9°F18.3°C 54.1°F12.3°C 68% 6.3 mph SW10.1 kmh SW 11.6 mph18.7 kmh 29.88 in1011.9 mb 0.00 in0.0 mm 0.00 in0.0 mm 0.00 in0.0 mm
04:15 PM 64.9°F18.3°C 54.1°F12.3°C 68% 4.5 mph SSW7.2 kmh SSW 10.5 mph16.9 kmh 29.88 in1011.9 mb 0.00 in0.0 mm 0.00 in0.0 mm 0.00 in0.0 mm
04:20 PM 64.9°F18.3°C 54.9°F12.7°C 70% 6.5 mph SW10.5 kmh SW 10.5 mph16.9 kmh 29.88 in1011.9 mb 0.00 in0.0 mm 0.00 in0.0 mm 0.00 in0.0 mm
04:25 PM 64.9°F18.3°C 54.9°F12.7°C 70% 5.4 mph SW8.7 kmh SW 10.5 mph16.9 kmh 29.88 in1011.9 mb 0.00 in0.0 mm 0.00 in0.0 mm 0.00 in0.0 mm
04:30 PM 64.8°F18.2°C 54.7°F12.6°C 70% 4.7 mph SSW7.6 kmh SSW 9.6 mph15.4 kmh 29.88 in1011.9 mb 0.00 in0.0 mm 0.00 in0.0 mm 0.00 in0.0 mm
04:35 PM 64.2°F17.9°C 54.7°F12.6°C 71% 2.5 mph SSW4.0 kmh SSW 9.6 mph15.4 kmh 29.87 in1011.5 mb 0.00 in0.0 mm 0.00 in0.0 mm 0.00 in0.0 mm
04:40 PM 63.9°F17.7°C 54.7°F12.6°C 72% 7.6 mph SW12.2 kmh SW 10.5 mph16.9 kmh 29.88 in1011.9 mb 0.00 in0.0 mm 0.00 in0.0 mm 0.00 in0.0 mm
04:45 PM 63.9°F17.7°C 54.7°F12.6°C 72% 7.4 mph S11.9 kmh S 11.6 mph18.7 kmh 29.88 in1011.9 mb 0.00 in0.0 mm 0.00 in0.0 mm 0.00 in0.0 mm
04:50 PM 63.9°F17.7°C 54.7°F12.6°C 72% 5.6 mph SSW9.0 kmh SSW 11.6 mph18.7 kmh 29.87 in1011.5 mb 0.00 in0.0 mm 0.00 in0.0 mm 0.00 in0.0 mm
04:55 PM 63.9°F17.7°C 54.7°F12.6°C 72% 5.4 mph SSW8.7 kmh SSW 9.6 mph15.4 kmh 29.87 in1011.5 mb 0.00 in0.0 mm 0.00 in0.0 mm 0.00 in0.0 mm
05:00 PM 63.5°F17.5°C 54.0°F12.2°C 71% 6.9 mph SW11.1 kmh SW 9.6 mph15.4 kmh 29.87 in1011.5 mb 0.00 in0.0 mm 0.00 in0.0 mm 0.00 in0.0 mm
05:05 PM 63.3°F17.4°C 54.1°F12.3°C 72% 4.9 mph WSW7.9 kmh WSW 7.4 mph11.9 kmh 29.88 in1011.9 mb 0.00 in0.0 mm 0.00 in0.0 mm 0.00 in0.0 mm
05:10 PM 63.3°F17.4°C 54.1°F12.3°C 72% 5.6 mph SW9.0 kmh SW 10.5 mph16.9 kmh 29.88 in1011.9 mb 0.00 in0.0 mm 0.00 in0.0 mm 0.00 in0.0 mm
05:15 PM 63.3°F17.4°C 53.8°F12.1°C 71% 4.7 mph SW7.6 kmh SW 10.5 mph16.9 kmh 29.87 in1011.5 mb 0.00 in0.0 mm 0.00 in0.0 mm 0.00 in0.0 mm
05:20 PM 63.3°F17.4°C 53.1°F11.7°C 69% 6.5 mph SW10.5 kmh SW 8.5 mph13.7 kmh 29.87 in1011.5 mb 0.00 in0.0 mm 0.00 in0.0 mm 0.00 in0.0 mm
05:25 PM 63.5°F17.5°C 54.0°F12.2°C 71% 5.8 mph S9.3 kmh S 10.5 mph16.9 kmh 29.88 in1011.9 mb 0.00 in0.0 mm 0.00 in0.0 mm 0.00 in0.0 mm
05:30 PM 63.3°F17.4°C 54.1°F12.3°C 72% 4.5 mph SW7.2 kmh SW 8.5 mph13.7 kmh 29.87 in1011.5 mb 0.00 in0.0 mm 0.00 in0.0 mm 0.00 in0.0 mm
05:36 PM 63.0°F17.2°C 53.8°F12.1°C 72% 4.7 mph SW7.6 kmh SW 9.6 mph15.4 kmh 29.88 in1011.9 mb 0.00 in0.0 mm 0.00 in0.0 mm 0.00 in0.0 mm
05:41 PM 62.8°F17.1°C 53.6°F12.0°C 72% 4.5 mph SW7.2 kmh SW 6.3 mph10.1 kmh 29.87 in1011.5 mb 0.00 in0.0 mm 0.00 in0.0 mm 0.00 in0.0 mm
05:46 PM 62.8°F17.1°C 54.0°F12.2°C 73% 3.6 mph SW5.8 kmh SW 6.3 mph10.1 kmh 29.88 in1011.9 mb 0.00 in0.0 mm 0.00 in0.0 mm 0.00 in0.0 mm
05:51 PM 62.4°F16.9°C 54.0°F12.2°C 74% 3.8 mph WSW6.1 kmh WSW 6.3 mph10.1 kmh 29.88 in1011.9 mb 0.00 in0.0 mm 0.00 in0.0 mm 0.00 in0.0 mm
05:56 PM 62.2°F16.8°C 54.1°F12.3°C 75% 4.0 mph SSW6.4 kmh SSW 7.4 mph11.9 kmh 29.88 in1011.9 mb 0.00 in0.0 mm 0.00 in0.0 mm 0.00 in0.0 mm
06:01 PM 62.1°F16.7°C 54.0°F12.2°C 75% 2.9 mph SSW4.7 kmh SSW 5.4 mph8.7 kmh 29.88 in1011.9 mb 0.00 in0.0 mm 0.00 in0.0 mm 0.00 in0.0 mm
06:06 PM 61.9°F16.6°C 53.8°F12.1°C 75% 2.5 mph S4.0 kmh S 6.3 mph10.1 kmh 29.87 in1011.5 mb 0.00 in0.0 mm 0.00 in0.0 mm 0.00 in0.0 mm
06:11 PM 61.9°F16.6°C 53.8°F12.1°C 75% 3.6 mph S5.8 kmh S 6.3 mph10.1 kmh 29.88 in1011.9 mb 0.00 in0.0 mm 0.00 in0.0 mm 0.00 in0.0 mm
06:16 PM 61.5°F16.4°C 54.3°F12.4°C 77% 2.0 mph SSW3.2 kmh SSW 6.3 mph10.1 kmh 29.88 in1011.9 mb 0.00 in0.0 mm 0.00 in0.0 mm 0.00 in0.0 mm
06:21 PM 61.3°F16.3°C 54.5°F12.5°C 78% 3.8 mph S6.1 kmh S 7.4 mph11.9 kmh 29.88 in1011.9 mb 0.00 in0.0 mm 0.00 in0.0 mm 0.00 in0.0 mm
06:26 PM 61.0°F16.1°C 54.5°F12.5°C 79% 4.5 mph SW7.2 kmh SW 8.5 mph13.7 kmh 29.88 in1011.9 mb 0.00 in0.0 mm 0.00 in0.0 mm 0.00 in0.0 mm
06:31 PM 60.6°F15.9°C 54.5°F12.5°C 80% 3.1 mph SW5.0 kmh SW 8.5 mph13.7 kmh 29.88 in1011.9 mb 0.00 in0.0 mm 0.00 in0.0 mm 0.00 in0.0 mm
06:36 PM 60.3°F15.7°C 54.3°F12.4°C 81% 2.2 mph SSE3.5 kmh SSE 6.3 mph10.1 kmh 29.88 in1011.9 mb 0.00 in0.0 mm 0.00 in0.0 mm 0.00 in0.0 mm
06:41 PM 60.1°F15.6°C 54.5°F12.5°C 82% 2.7 mph SW4.3 kmh SW 5.4 mph8.7 kmh 29.88 in1011.9 mb 0.00 in0.0 mm 0.00 in0.0 mm 0.00 in0.0 mm
06:46 PM 59.9°F15.5°C 54.3°F12.4°C 82% 3.6 mph WSW5.8 kmh WSW 6.3 mph10.1 kmh 29.88 in1011.9 mb 0.00 in0.0 mm 0.00 in0.0 mm 0.00 in0.0 mm
06:51 PM 59.7°F15.4°C 54.5°F12.5°C 83% 3.4 mph SW5.5 kmh SW 6.3 mph10.1 kmh 29.88 in1011.9 mb 0.00 in0.0 mm 0.00 in0.0 mm 0.00 in0.0 mm
06:56 PM 59.5°F15.3°C 54.3°F12.4°C 83% 1.3 mph S2.1 kmh S 4.3 mph6.9 kmh 29.88 in1011.9 mb 0.00 in0.0 mm 0.00 in0.0 mm 0.00 in0.0 mm
07:01 PM 59.5°F15.3°C 54.3°F12.4°C 83% 2.2 mph SSW3.5 kmh SSW 4.3 mph6.9 kmh 29.88 in1011.9 mb 0.00 in0.0 mm 0.00 in0.0 mm 0.00 in0.0 mm
07:06 PM 59.4°F15.2°C 54.5°F12.5°C 84% 2.2 mph S3.5 kmh S 4.3 mph6.9 kmh 29.88 in1011.9 mb 0.00 in0.0 mm 0.00 in0.0 mm 0.00 in0.0 mm
07:11 PM 59.4°F15.2°C 54.5°F12.5°C 84% 2.5 mph S4.0 kmh S 4.3 mph6.9 kmh 29.88 in1011.9 mb 0.00 in0.0 mm 0.00 in0.0 mm 0.00 in0.0 mm
07:16 PM 59.2°F15.1°C 54.3°F12.4°C 84% 1.6 mph SW2.6 kmh SW 4.3 mph6.9 kmh 29.88 in1011.9 mb 0.00 in0.0 mm 0.00 in0.0 mm 0.00 in0.0 mm
07:21 PM 59.2°F15.1°C 54.3°F12.4°C 84% 0.4 mph SW0.6 kmh SW 3.1 mph5.0 kmh 29.88 in1011.9 mb 0.00 in0.0 mm 0.00 in0.0 mm 0.00 in0.0 mm
07:26 PM 59.0°F15.0°C 54.1°F12.3°C 84% 2.0 mph SW3.2 kmh SW 4.3 mph6.9 kmh 29.88 in1011.9 mb 0.00 in0.0 mm 0.00 in0.0 mm 0.00 in0.0 mm
07:31 PM 58.8°F14.9°C 54.0°F12.2°C 84% 2.0 mph S3.2 kmh S 3.1 mph5.0 kmh 29.88 in1011.9 mb 0.00 in0.0 mm 0.00 in0.0 mm 0.00 in0.0 mm
07:36 PM 58.8°F14.9°C 54.0°F12.2°C 84% 0.9 mph SE1.4 kmh SE 3.1 mph5.0 kmh 29.88 in1011.9 mb 0.00 in0.0 mm 0.00 in0.0 mm 0.00 in0.0 mm
07:41 PM 58.8°F14.9°C 54.0°F12.2°C 84% 1.8 mph SE2.9 kmh SE 4.3 mph6.9 kmh 29.88 in1011.9 mb 0.00 in0.0 mm 0.00 in0.0 mm 0.00 in0.0 mm
07:46 PM 58.6°F14.8°C 54.1°F12.3°C 85% 2.0 mph SE3.2 kmh SE 4.3 mph6.9 kmh 29.88 in1011.9 mb 0.00 in0.0 mm 0.00 in0.0 mm 0.00 in0.0 mm
07:51 PM 58.6°F14.8°C 54.1°F12.3°C 85% 0.9 mph SE1.4 kmh SE 4.3 mph6.9 kmh 29.87 in1011.5 mb 0.00 in0.0 mm 0.00 in0.0 mm 0.00 in0.0 mm
07:56 PM 58.6°F14.8°C 54.1°F12.3°C 85% 1.8 mph SSE2.9 kmh SSE 4.3 mph6.9 kmh 29.88 in1011.9 mb 0.00 in0.0 mm 0.00 in0.0 mm 0.00 in0.0 mm
08:01 PM 58.6°F14.8°C 54.1°F12.3°C 85% 0.4 mph SSW0.6 kmh SSW 4.3 mph6.9 kmh 29.88 in1011.9 mb 0.00 in0.0 mm 0.00 in0.0 mm 0.00 in0.0 mm
08:06 PM 58.5°F14.7°C 54.0°F12.2°C 85% 0.4 mph SW0.6 kmh SW 2.0 mph3.2 kmh 29.88 in1011.9 mb 0.00 in0.0 mm 0.00 in0.0 mm 0.00 in0.0 mm
08:11 PM 58.5°F14.7°C 54.0°F12.2°C 85% 0.7 mph SSW1.1 kmh SSW 3.1 mph5.0 kmh 29.89 in1012.2 mb 0.00 in0.0 mm 0.00 in0.0 mm 0.00 in0.0 mm
08:16 PM 58.5°F14.7°C 54.0°F12.2°C 85% 0.2 mph SW0.3 kmh SW 1.1 mph1.8 kmh 29.89 in1012.2 mb 0.00 in0.0 mm 0.00 in0.0 mm 0.00 in0.0 mm
08:21 PM 58.3°F14.6°C 53.8°F12.1°C 85% Calm Calm -- 29.89 in1012.2 mb 0.00 in0.0 mm 0.00 in0.0 mm 0.00 in0.0 mm
08:26 PM 58.5°F14.7°C 54.0°F12.2°C 85% 0.2 mph SSE0.3 kmh SSE 1.1 mph1.8 kmh 29.89 in1012.2 mb 0.00 in0.0 mm 0.00 in0.0 mm 0.00 in0.0 mm
08:31 PM 58.5°F14.7°C 54.3°F12.4°C 86% Calm Calm -- 29.89 in1012.2 mb 0.00 in0.0 mm 0.00 in0.0 mm 0.00 in0.0 mm
08:36 PM 58.3°F14.6°C 53.8°F12.1°C 85% 0.2 mph SE0.3 kmh SE 1.1 mph1.8 kmh 29.89 in1012.2 mb 0.00 in0.0 mm 0.00 in0.0 mm 0.00 in0.0 mm
08:41 PM 58.5°F14.7°C 54.3°F12.4°C 86% Calm Calm 2.0 mph3.2 kmh 29.89 in1012.2 mb 0.00 in0.0 mm 0.00 in0.0 mm 0.00 in0.0 mm
08:46 PM 58.5°F14.7°C 54.3°F12.4°C 86% Calm Calm 1.1 mph1.8 kmh 29.89 in1012.2 mb 0.00 in0.0 mm 0.00 in0.0 mm 0.00 in0.0 mm
08:51 PM 58.5°F14.7°C 54.3°F12.4°C 86% Calm Calm 2.0 mph3.2 kmh 29.89 in1012.2 mb 0.00 in0.0 mm 0.00 in0.0 mm 0.00 in0.0 mm
08:56 PM 58.5°F14.7°C 54.3°F12.4°C 86% 0.2 mph SSW0.3 kmh SSW 1.1 mph1.8 kmh 29.89 in1012.2 mb 0.00 in0.0 mm 0.00 in0.0 mm 0.00 in0.0 mm
09:01 PM 58.6°F14.8°C 54.5°F12.5°C 86% 0.2 mph SSE0.3 kmh SSE 3.1 mph5.0 kmh 29.89 in1012.2 mb 0.00 in0.0 mm 0.00 in0.0 mm 0.00 in0.0 mm
09:06 PM 58.6°F14.8°C 54.5°F12.5°C 86% Calm Calm -- 29.89 in1012.2 mb 0.00 in0.0 mm 0.00 in0.0 mm 0.00 in0.0 mm
09:11 PM 58.5°F14.7°C 54.3°F12.4°C 86% Calm Calm 2.0 mph3.2 kmh 29.90 in1012.5 mb 0.00 in0.0 mm 0.00 in0.0 mm 0.00 in0.0 mm
09:16 PM 58.5°F14.7°C 54.3°F12.4°C 86% Calm Calm 1.1 mph1.8 kmh 29.90 in1012.5 mb 0.00 in0.0 mm 0.00 in0.0 mm 0.00 in0.0 mm
09:21 PM 58.6°F14.8°C 54.9°F12.7°C 87% 0.2 mph SW0.3 kmh SW 2.0 mph3.2 kmh 29.90 in1012.5 mb 0.00 in0.0 mm 0.00 in0.0 mm 0.00 in0.0 mm
09:26 PM 58.6°F14.8°C 54.9°F12.7°C 87% 1.3 mph WSW2.1 kmh WSW 3.1 mph5.0 kmh 29.91 in1012.9 mb 0.00 in0.0 mm 0.00 in0.0 mm 0.00 in0.0 mm
09:31 PM 58.8°F14.9°C 55.0°F12.8°C 87% 2.7 mph SW4.3 kmh SW 5.4 mph8.7 kmh 29.90 in1012.5 mb 0.00 in0.0 mm 0.00 in0.0 mm 0.00 in0.0 mm
09:36 PM 59.0°F15.0°C 55.2°F12.9°C 87% 1.3 mph SW2.1 kmh SW 5.4 mph8.7 kmh 29.91 in1012.9 mb 0.00 in0.0 mm 0.00 in0.0 mm 0.00 in0.0 mm
09:41 PM 59.2°F15.1°C 55.4°F13.0°C 87% 1.1 mph S1.8 kmh S 3.1 mph5.0 kmh 29.91 in1012.9 mb 0.00 in0.0 mm 0.00 in0.0 mm 0.00 in0.0 mm
09:46 PM 59.2°F15.1°C 55.4°F13.0°C 87% 0.2 mph WSW0.3 kmh WSW 2.0 mph3.2 kmh 29.91 in1012.9 mb 0.00 in0.0 mm 0.00 in0.0 mm 0.00 in0.0 mm
09:51 PM 59.2°F15.1°C 55.4°F13.0°C 87% 0.7 mph SW1.1 kmh SW 2.0 mph3.2 kmh 29.91 in1012.9 mb 0.00 in0.0 mm 0.00 in0.0 mm 0.00 in0.0 mm
09:56 PM 59.2°F15.1°C 55.0°F12.8°C 86% 2.9 mph WSW4.7 kmh WSW 8.5 mph13.7 kmh 29.90 in1012.5 mb 0.00 in0.0 mm 0.00 in0.0 mm 0.00 in0.0 mm
10:01 PM 59.2°F15.1°C 55.0°F12.8°C 86% 0.7 mph WSW1.1 kmh WSW 2.0 mph3.2 kmh 29.90 in1012.5 mb 0.00 in0.0 mm 0.00 in0.0 mm 0.00 in0.0 mm
10:06 PM 59.2°F15.1°C 54.7°F12.6°C 85% Calm Calm 4.3 mph6.9 kmh 29.90 in1012.5 mb 0.00 in0.0 mm 0.00 in0.0 mm 0.00 in0.0 mm
10:11 PM 59.0°F15.0°C 54.1°F12.3°C 84% 0.2 mph SSW0.3 kmh SSW 1.1 mph1.8 kmh 29.90 in1012.5 mb 0.00 in0.0 mm 0.00 in0.0 mm 0.00 in0.0 mm
10:16 PM 58.8°F14.9°C 53.6°F12.0°C 83% Calm Calm 1.1 mph1.8 kmh 29.90 in1012.5 mb 0.00 in0.0 mm 0.00 in0.0 mm 0.00 in0.0 mm
10:21 PM 58.6°F14.8°C 53.4°F11.9°C 83% Calm Calm -- 29.89 in1012.2 mb 0.00 in0.0 mm 0.00 in0.0 mm 0.00 in0.0 mm
10:26 PM 58.6°F14.8°C 53.4°F11.9°C 83% 0.2 mph SE0.3 kmh SE 1.1 mph1.8 kmh 29.89 in1012.2 mb 0.00 in0.0 mm 0.00 in0.0 mm 0.00 in0.0 mm
10:31 PM 58.5°F14.7°C 53.2°F11.8°C 83% Calm Calm -- 29.89 in1012.2 mb 0.00 in0.0 mm 0.00 in0.0 mm 0.00 in0.0 mm
10:36 PM 58.3°F14.6°C 53.4°F11.9°C 84% Calm Calm -- 29.89 in1012.2 mb 0.00 in0.0 mm 0.00 in0.0 mm 0.00 in0.0 mm
10:41 PM 57.9°F14.4°C 53.1°F11.7°C 84% Calm Calm -- 29.89 in1012.2 mb 0.00 in0.0 mm 0.00 in0.0 mm 0.00 in0.0 mm
10:46 PM 57.9°F14.4°C 53.4°F11.9°C 85% Calm Calm -- 29.89 in1012.2 mb 0.00 in0.0 mm 0.00 in0.0 mm 0.00 in0.0 mm
10:51 PM 58.1°F14.5°C 53.6°F12.0°C 85% 0.4 mph SSW0.6 kmh SSW 2.0 mph3.2 kmh 29.88 in1011.9 mb 0.00 in0.0 mm 0.00 in0.0 mm 0.00 in0.0 mm
10:56 PM 58.1°F14.5°C 53.6°F12.0°C 85% Calm Calm -- 29.89 in1012.2 mb 0.00 in0.0 mm 0.00 in0.0 mm 0.00 in0.0 mm
11:01 PM 58.1°F14.5°C 53.6°F12.0°C 85% Calm Calm -- 29.88 in1011.9 mb 0.00 in0.0 mm 0.00 in0.0 mm 0.00 in0.0 mm
11:06 PM 58.1°F14.5°C 53.6°F12.0°C 85% 0.7 mph SSW1.1 kmh SSW 2.0 mph3.2 kmh 29.88 in1011.9 mb 0.00 in0.0 mm 0.00 in0.0 mm 0.00 in0.0 mm
11:11 PM 57.9°F14.4°C 53.8°F12.1°C 86% Calm Calm -- 29.88 in1011.9 mb 0.00 in0.0 mm 0.00 in0.0 mm 0.00 in0.0 mm
11:16 PM 57.9°F14.4°C 53.8°F12.1°C 86% Calm Calm -- 29.88 in1011.9 mb 0.00 in0.0 mm 0.00 in0.0 mm 0.00 in0.0 mm
11:21 PM 57.9°F14.4°C 53.8°F12.1°C 86% Calm Calm 1.1 mph1.8 kmh 29.88 in1011.9 mb 0.00 in0.0 mm 0.00 in0.0 mm 0.00 in0.0 mm
11:26 PM 57.9°F14.4°C 53.8°F12.1°C 86% 0.4 mph S0.6 kmh S 2.0 mph3.2 kmh 29.88 in1011.9 mb 0.00 in0.0 mm 0.00 in0.0 mm 0.00 in0.0 mm
11:31 PM 57.9°F14.4°C 53.8°F12.1°C 86% 1.6 mph SSW2.6 kmh SSW 2.0 mph3.2 kmh 29.88 in1011.9 mb 0.00 in0.0 mm 0.00 in0.0 mm 0.00 in0.0 mm
11:36 PM 57.9°F14.4°C 53.8°F12.1°C 86% 1.3 mph SE2.1 kmh SE 3.1 mph5.0 kmh 29.88 in1011.9 mb 0.00 in0.0 mm 0.00 in0.0 mm 0.00 in0.0 mm
11:41 PM 57.9°F14.4°C 53.8°F12.1°C 86% Calm Calm 2.0 mph3.2 kmh 29.88 in1011.9 mb 0.00 in0.0 mm 0.00 in0.0 mm 0.00 in0.0 mm
11:46 PM 57.9°F14.4°C 53.8°F12.1°C 86% 0.7 mph SE1.1 kmh SE 3.1 mph5.0 kmh 29.88 in1011.9 mb 0.00 in0.0 mm 0.00 in0.0 mm 0.00 in0.0 mm
11:51 PM 57.7°F14.3°C 53.6°F12.0°C 86% 0.9 mph SE1.4 kmh SE 3.1 mph5.0 kmh 29.88 in1011.9 mb 0.00 in0.0 mm 0.00 in0.0 mm 0.00 in0.0 mm
11:56 PM 57.7°F14.3°C 53.6°F12.0°C 86% 0.2 mph SSE0.3 kmh SSE 3.1 mph5.0 kmh 29.88 in1011.9 mb 0.00 in0.0 mm 0.00 in0.0 mm 0.00 in0.0 mm